Portola, California
Current Conditions -  °F | °C
As of 1:55 AM on Friday 28 Nov 2014 (Local Time) from KRTS Reporting Station
Clear Clear  
Wind Chill: 54°   Ceiling: Unl
Heat Index: 54°   Visibility: 10mi
Dew Point: -2°   Wind: 14mph
Humidity: 10%   Direction: 270°W
Pressure: 30.07"   Gusts: 26mph
Location:  39.81°N, 120.47°W
Report Text: KRTS 280955Z AUTO 27012G23KT 240V330 10SM CLR 12/M19 A3007 RMK AO2
Loading
Personal Weather Stations






























Interactive Weather Map New forecast layout! Learn more

10-Day Weather Forecast

Advertisements
Track Severe Weather on mobile